createdAt,value
2023-07-26T00:00:22.787Z,15.21
2023-07-26T00:03:10.479Z,14.99
2023-07-26T00:05:58.195Z,15.21
2023-07-26T00:08:45.822Z,15.63
2023-07-26T00:11:33.461Z,15.88
2023-07-26T00:14:21.101Z,15.97
2023-07-26T00:17:08.718Z,16.01
2023-07-26T00:19:56.337Z,15.99
2023-07-26T00:22:43.999Z,15.91
2023-07-26T00:25:31.632Z,16.01
2023-07-26T00:28:19.278Z,16.04
2023-07-26T00:31:06.949Z,16.25
2023-07-26T00:33:54.623Z,16.28
2023-07-26T00:36:42.275Z,16.26
2023-07-26T00:39:29.908Z,16.20
2023-07-26T00:42:17.533Z,16.34
2023-07-26T00:45:05.163Z,16.30
2023-07-26T00:47:52.776Z,16.33
2023-07-26T00:50:40.435Z,16.55
2023-07-26T00:53:28.062Z,16.37
2023-07-26T00:56:15.684Z,16.20
2023-07-26T00:59:06.805Z,16.25
2023-07-26T01:01:54.988Z,16.35
2023-07-26T01:04:42.658Z,16.48
2023-07-26T01:07:30.299Z,16.58
2023-07-26T01:10:17.910Z,16.74
2023-07-26T01:13:05.590Z,16.71
2023-07-26T01:15:53.245Z,16.48
2023-07-26T01:18:40.886Z,16.54
2023-07-26T01:21:30.293Z,16.48
2023-07-26T01:24:18.243Z,16.54
2023-07-26T01:27:05.936Z,16.62
2023-07-26T01:29:53.587Z,16.43
2023-07-26T01:32:41.231Z,16.42
2023-07-26T01:35:28.944Z,15.94
2023-07-26T01:38:16.628Z,16.07
2023-07-26T01:41:04.275Z,15.95
2023-07-26T01:43:51.901Z,15.84
2023-07-26T01:46:39.613Z,15.58
2023-07-26T01:49:27.346Z,16.05
2023-07-26T01:52:15.016Z,16.18
2023-07-26T01:55:02.651Z,16.51
2023-07-26T01:57:52.275Z,16.63
2023-07-26T02:00:39.887Z,16.85
2023-07-26T02:03:29.514Z,16.92
2023-07-26T02:06:17.184Z,16.83
2023-07-26T02:09:04.829Z,16.92
2023-07-26T02:11:52.493Z,17.00
2023-07-26T02:14:40.173Z,16.80
2023-07-26T02:17:27.840Z,16.50
2023-07-26T02:20:17.525Z,16.24
2023-07-26T02:23:05.153Z,16.09
2023-07-26T02:25:52.820Z,16.14
2023-07-26T02:28:40.445Z,15.49
2023-07-26T02:31:28.144Z,15.89
2023-07-26T02:34:15.781Z,15.90
2023-07-26T02:37:03.434Z,15.91
2023-07-26T02:39:51.099Z,15.97
2023-07-26T02:42:38.746Z,16.29
2023-07-26T02:45:26.567Z,16.56
2023-07-26T02:48:14.211Z,16.69
2023-07-26T02:51:01.839Z,16.65
2023-07-26T02:53:49.465Z,16.71
2023-07-26T02:56:37.086Z,16.90
2023-07-26T02:59:24.719Z,17.09
2023-07-26T03:02:12.351Z,17.15
2023-07-26T03:05:00.039Z,17.25
2023-07-26T03:07:47.665Z,17.15
2023-07-26T03:10:35.330Z,16.61
2023-07-26T03:13:22.962Z,16.88
2023-07-26T03:16:10.619Z,16.84
2023-07-26T03:18:58.259Z,16.88
2023-07-26T03:21:47.879Z,17.04
2023-07-26T03:24:35.549Z,17.07
2023-07-26T03:27:24.678Z,17.13
2023-07-26T03:30:12.586Z,17.21
2023-07-26T03:33:00.296Z,17.23
2023-07-26T03:35:47.997Z,17.25
2023-07-26T03:38:35.662Z,17.44
2023-07-26T03:41:23.302Z,17.46
2023-07-26T03:44:10.958Z,17.40
2023-07-26T03:46:58.591Z,17.37
2023-07-26T03:49:46.212Z,17.51
2023-07-26T03:52:33.921Z,17.62
2023-07-26T03:55:21.551Z,17.67
2023-07-26T03:58:09.206Z,17.44
2023-07-26T04:00:56.877Z,17.03
2023-07-26T04:03:46.637Z,17.15
2023-07-26T04:06:34.571Z,17.08
2023-07-26T04:09:22.581Z,17.28
2023-07-26T04:12:10.211Z,17.29
2023-07-26T04:15:17.826Z,17.33
2023-07-26T04:18:05.493Z,17.44
2023-07-26T04:20:53.212Z,17.49
2023-07-26T04:23:40.838Z,17.43
2023-07-26T04:26:28.499Z,17.49
2023-07-26T04:29:16.147Z,17.50
2023-07-26T04:32:03.762Z,17.20
2023-07-26T04:34:51.447Z,17.29
2023-07-26T04:37:39.066Z,17.36
2023-07-26T04:40:26.711Z,17.15
2023-07-26T04:43:14.333Z,17.18
2023-07-26T04:46:01.989Z,16.73
2023-07-26T04:48:49.639Z,16.99
2023-07-26T04:51:37.255Z,16.71
2023-07-26T04:54:24.910Z,16.24
2023-07-26T04:57:12.538Z,16.08
2023-07-26T05:00:00.178Z,16.18
2023-07-26T05:02:47.921Z,15.69
2023-07-26T05:05:35.593Z,16.15
2023-07-26T05:08:23.233Z,15.96
2023-07-26T05:11:10.886Z,15.94
2023-07-26T05:13:58.533Z,15.60
2023-07-26T05:16:46.204Z,15.44
2023-07-26T05:19:33.902Z,15.68
2023-07-26T05:22:21.560Z,15.23
2023-07-26T05:25:09.175Z,15.13
2023-07-26T05:27:56.851Z,14.75
2023-07-26T05:30:44.583Z,14.74
2023-07-26T05:33:32.237Z,14.15
2023-07-26T05:36:20.040Z,14.17
2023-07-26T05:39:07.768Z,14.08
2023-07-26T05:41:55.412Z,14.25
2023-07-26T05:44:43.073Z,14.18
2023-07-26T05:47:30.773Z,14.22
2023-07-26T05:50:21.072Z,13.84
2023-07-26T05:53:09.781Z,13.94
2023-07-26T05:55:57.428Z,13.78
2023-07-26T05:58:47.102Z,13.72
2023-07-26T06:01:35.421Z,13.51
2023-07-26T06:04:23.333Z,13.68
2023-07-26T06:07:10.984Z,13.79
2023-07-26T06:09:58.609Z,13.81
2023-07-26T06:12:46.257Z,13.53
2023-07-26T06:15:33.889Z,14.02
2023-07-26T06:18:21.590Z,14.18
2023-07-26T06:21:09.229Z,14.44
2023-07-26T06:23:56.871Z,13.93
2023-07-26T06:26:44.547Z,14.15
2023-07-26T06:29:32.184Z,13.79
2023-07-26T06:32:19.837Z,14.01
2023-07-26T06:35:07.459Z,13.62
2023-07-26T06:37:55.107Z,13.78
2023-07-26T06:40:42.743Z,14.20
2023-07-26T06:43:30.391Z,13.58
2023-07-26T06:46:18.070Z,13.96
2023-07-26T06:49:05.783Z,13.89
2023-07-26T06:51:53.419Z,13.96
2023-07-26T06:54:41.074Z,13.92
2023-07-26T06:57:28.708Z,14.70
2023-07-26T07:00:16.360Z,14.48
2023-07-26T07:03:04.043Z,14.23
2023-07-26T07:05:51.719Z,14.28
2023-07-26T07:08:39.389Z,14.82
2023-07-26T07:11:27.043Z,14.56
2023-07-26T07:14:14.642Z,14.65
2023-07-26T07:17:02.272Z,15.25
2023-07-26T07:19:49.896Z,15.30
2023-07-26T07:22:37.557Z,15.05
2023-07-26T07:25:25.228Z,15.04
2023-07-26T07:28:12.878Z,15.60
2023-07-26T07:31:02.517Z,15.31
2023-07-26T07:33:50.150Z,15.06
2023-07-26T07:36:37.778Z,15.56
2023-07-26T07:39:25.552Z,15.53
2023-07-26T07:42:13.321Z,15.54
2023-07-26T07:45:00.949Z,15.69
2023-07-26T07:47:48.660Z,16.03
2023-07-26T07:50:36.343Z,15.64
2023-07-26T07:53:23.985Z,15.51
2023-07-26T07:56:11.606Z,15.36
2023-07-26T07:58:59.259Z,15.19
2023-07-26T08:01:46.895Z,14.76
2023-07-26T08:04:34.663Z,15.17
2023-07-26T08:07:22.287Z,15.28
2023-07-26T08:10:09.929Z,14.97
2023-07-26T08:12:57.590Z,14.96
2023-07-26T08:15:45.363Z,15.21
2023-07-26T08:18:33.104Z,15.58
2023-07-26T08:21:20.745Z,15.52
2023-07-26T08:24:08.381Z,15.29
2023-07-26T08:26:56.161Z,15.72
2023-07-26T08:29:45.801Z,15.70
2023-07-26T08:32:33.435Z,15.24
2023-07-26T08:35:21.093Z,14.80
2023-07-26T08:38:08.722Z,15.10
2023-07-26T08:40:56.372Z,15.26
2023-07-26T08:43:44.025Z,15.14
2023-07-26T08:46:31.683Z,14.86
2023-07-26T08:49:19.404Z,15.24
2023-07-26T08:52:07.034Z,15.30
2023-07-26T08:54:54.701Z,15.50
2023-07-26T08:57:42.638Z,15.69
2023-07-26T09:00:30.372Z,15.56
2023-07-26T09:03:18.093Z,15.82
2023-07-26T09:06:05.856Z,15.82
2023-07-26T09:08:53.505Z,16.43
2023-07-26T09:11:41.167Z,15.97
2023-07-26T09:14:28.844Z,16.24
2023-07-26T09:17:16.499Z,16.04
2023-07-26T09:20:04.121Z,15.98
2023-07-26T09:22:51.783Z,15.86
2023-07-26T09:25:39.399Z,15.64
2023-07-26T09:28:27.044Z,15.47
2023-07-26T09:31:14.753Z,15.47
2023-07-26T09:34:02.393Z,16.14
2023-07-26T09:36:50.050Z,15.87
2023-07-26T09:39:37.721Z,15.87
2023-07-26T09:42:26.693Z,15.81
2023-07-26T09:48:05.421Z,16.29
2023-07-26T09:50:53.284Z,16.24
2023-07-26T09:53:41.006Z,16.44
2023-07-26T09:56:28.633Z,16.47
2023-07-26T09:59:16.268Z,16.45
2023-07-26T10:02:04.168Z,16.24
2023-07-26T10:04:52.114Z,16.48
2023-07-26T10:07:39.756Z,16.41
2023-07-26T10:10:27.414Z,16.86
2023-07-26T10:13:15.039Z,16.67
2023-07-26T10:16:02.687Z,15.89
2023-07-26T10:18:50.380Z,16.12
2023-07-26T10:21:38.033Z,16.42
2023-07-26T10:24:25.758Z,16.27
2023-07-26T10:27:13.434Z,15.48
2023-07-26T10:30:01.096Z,16.25
2023-07-26T10:32:48.831Z,16.52
2023-07-26T10:35:36.528Z,16.20
2023-07-26T10:38:24.161Z,15.80
2023-07-26T10:41:11.793Z,16.42
2023-07-26T10:44:01.438Z,16.29
2023-07-26T10:46:49.186Z,16.37
2023-07-26T10:49:36.890Z,16.69
2023-07-26T10:52:24.503Z,16.28
2023-07-26T10:55:12.138Z,16.28
2023-07-26T10:57:59.785Z,16.29
2023-07-26T11:00:47.417Z,16.19
2023-07-26T11:03:35.072Z,16.68
2023-07-26T11:06:22.705Z,16.67
2023-07-26T11:09:10.322Z,16.12
2023-07-26T11:11:57.985Z,16.67
2023-07-26T11:14:54.367Z,16.62
2023-07-26T11:17:53.253Z,16.47
2023-07-26T11:20:40.953Z,16.80
2023-07-26T11:23:28.872Z,17.36
2023-07-26T11:26:16.611Z,17.89
2023-07-26T11:29:04.210Z,17.22
2023-07-26T11:31:51.952Z,17.32
2023-07-26T11:34:39.746Z,17.42
2023-07-26T11:37:27.409Z,17.53
2023-07-26T11:40:15.054Z,17.92
2023-07-26T11:43:02.720Z,17.18
2023-07-26T11:45:50.471Z,16.87
2023-07-26T11:48:38.222Z,17.35
2023-07-26T11:51:25.862Z,17.16
2023-07-26T11:54:13.505Z,17.43
2023-07-26T11:57:01.185Z,17.23
2023-07-26T11:59:48.821Z,18.24
2023-07-26T12:02:36.546Z,18.03
2023-07-26T12:05:24.176Z,17.92
2023-07-26T12:08:11.880Z,18.28
2023-07-26T12:11:00.860Z,18.80
2023-07-26T12:13:48.493Z,19.44
2023-07-26T12:16:36.403Z,19.67
2023-07-26T12:19:24.312Z,19.05
2023-07-26T12:22:11.975Z,18.51
2023-07-26T12:24:59.675Z,19.00
2023-07-26T12:27:47.361Z,19.31
2023-07-26T12:30:35.046Z,18.45
2023-07-26T12:33:22.671Z,17.88
2023-07-26T12:36:10.313Z,17.77
2023-07-26T12:38:57.942Z,17.82
2023-07-26T12:41:46.570Z,18.31
2023-07-26T12:44:34.698Z,19.00
2023-07-26T12:50:12.881Z,19.11
2023-07-26T12:53:00.532Z,19.93
2023-07-26T12:55:48.204Z,19.42
2023-07-26T12:58:35.872Z,19.24
2023-07-26T13:01:23.587Z,19.19
2023-07-26T13:04:11.463Z,19.27
2023-07-26T13:06:59.166Z,18.96
2023-07-26T13:09:46.805Z,19.37
2023-07-26T13:12:34.455Z,19.20
2023-07-26T13:15:22.071Z,19.20
2023-07-26T13:18:09.758Z,18.88
2023-07-26T13:20:57.424Z,18.74
2023-07-26T13:23:45.073Z,19.07
2023-07-26T13:26:32.887Z,18.87
2023-07-26T13:29:20.755Z,19.33
2023-07-26T13:32:08.387Z,19.72
2023-07-26T13:34:56.010Z,20.50
2023-07-26T13:37:43.975Z,18.96
2023-07-26T13:40:31.605Z,19.25
2023-07-26T13:43:19.202Z,19.10
2023-07-26T13:46:16.477Z,18.87
2023-07-26T13:49:11.782Z,18.59
2023-07-26T13:51:59.417Z,19.10
2023-07-26T13:54:47.068Z,19.10
2023-07-26T13:57:34.701Z,19.08
2023-07-26T14:00:22.335Z,18.79
2023-07-26T14:03:10.930Z,19.11
2023-07-26T14:06:00.735Z,19.57
2023-07-26T14:08:48.352Z,19.71
2023-07-26T14:11:36.089Z,19.71
2023-07-26T14:14:23.735Z,19.74
2023-07-26T14:17:11.444Z,19.58
2023-07-26T14:19:59.123Z,19.63
2023-07-26T14:22:46.741Z,19.57
2023-07-26T14:25:36.419Z,20.18
2023-07-26T14:28:24.054Z,20.08
2023-07-26T14:31:11.729Z,19.51
2023-07-26T14:33:59.373Z,19.06
2023-07-26T14:36:47.007Z,18.76
2023-07-26T14:39:34.668Z,18.95
2023-07-26T14:42:22.324Z,19.09
2023-07-26T14:45:09.979Z,19.48
2023-07-26T14:47:57.602Z,19.88
2023-07-26T14:50:45.271Z,19.85
2023-07-26T14:53:32.923Z,20.45
2023-07-26T14:56:20.562Z,20.01
2023-07-26T14:59:08.214Z,19.64
2023-07-26T15:01:55.838Z,19.57
2023-07-26T15:04:43.659Z,19.42
2023-07-26T15:07:31.362Z,19.86
2023-07-26T15:10:21.493Z,20.13
2023-07-26T15:13:09.900Z,20.44
2023-07-26T15:15:59.530Z,20.15
2023-07-26T15:18:47.144Z,20.54
2023-07-26T15:21:35.141Z,20.80
2023-07-26T15:24:22.994Z,20.34
2023-07-26T15:27:10.804Z,20.08
2023-07-26T15:30:00.464Z,20.20
2023-07-26T15:32:48.184Z,19.91
2023-07-26T15:35:38.693Z,20.25
2023-07-26T15:38:26.886Z,20.53
2023-07-26T15:41:16.188Z,20.97
2023-07-26T15:49:46.100Z,21.41
2023-07-26T15:52:34.541Z,21.19
2023-07-26T15:55:24.182Z,21.06
2023-07-26T15:58:11.816Z,20.97
2023-07-26T16:00:59.463Z,19.40
2023-07-26T16:03:52.966Z,19.48
2023-07-26T16:09:31.613Z,20.10
2023-07-26T16:23:41.449Z,20.21
2023-07-26T16:26:29.071Z,19.76
2023-07-26T16:29:16.723Z,19.05
2023-07-26T16:32:04.370Z,18.30
2023-07-26T16:34:52.034Z,19.37
2023-07-26T16:37:39.694Z,19.66
2023-07-26T16:40:27.328Z,19.39
2023-07-26T16:43:14.955Z,20.80
2023-07-26T16:46:02.660Z,19.45
2023-07-26T16:48:50.285Z,20.08
2023-07-26T16:51:38.016Z,20.70
2023-07-26T16:54:25.652Z,20.84
2023-07-26T16:57:13.290Z,21.50
2023-07-26T17:00:00.907Z,21.70
2023-07-26T17:02:48.677Z,22.34
2023-07-26T17:05:36.341Z,21.77
2023-07-26T17:08:24.027Z,21.86
2023-07-26T17:11:11.699Z,20.98
2023-07-26T17:13:59.365Z,21.38
2023-07-26T17:16:48.997Z,21.66
2023-07-26T17:19:36.592Z,20.89
2023-07-26T17:22:24.354Z,21.65
2023-07-26T17:25:11.996Z,21.86
2023-07-26T17:27:59.643Z,21.79
2023-07-26T17:30:47.259Z,22.10
2023-07-26T17:33:34.902Z,22.04
2023-07-26T17:36:22.507Z,21.97
2023-07-26T17:39:10.152Z,22.60
2023-07-26T17:41:59.802Z,21.71
2023-07-26T17:44:47.449Z,21.69
2023-07-26T17:47:35.083Z,21.89
2023-07-26T17:50:22.723Z,21.96
2023-07-26T17:53:10.363Z,22.51
2023-07-26T17:55:57.992Z,21.72
2023-07-26T17:58:45.651Z,22.13
2023-07-26T18:01:33.302Z,22.43
2023-07-26T18:04:21.031Z,22.34
2023-07-26T18:07:08.691Z,22.59
2023-07-26T18:09:58.340Z,23.10
2023-07-26T18:12:45.967Z,23.46
2023-07-26T18:15:33.651Z,23.69
2023-07-26T18:18:21.316Z,23.90
2023-07-26T18:21:08.988Z,23.86
2023-07-26T18:23:56.611Z,23.52
2023-07-26T18:26:44.704Z,23.63
2023-07-26T18:29:32.521Z,23.76
2023-07-26T18:32:20.166Z,23.89
2023-07-26T18:35:07.823Z,23.67
2023-07-26T18:37:55.461Z,23.69
2023-07-26T18:40:43.106Z,23.63
2023-07-26T18:43:30.767Z,23.87
2023-07-26T18:46:18.511Z,24.04
2023-07-26T18:49:08.168Z,23.61
2023-07-26T18:51:55.794Z,22.40
2023-07-26T18:54:43.457Z,21.53
2023-07-26T18:57:31.147Z,20.80
2023-07-26T19:00:18.788Z,20.16
2023-07-26T19:03:06.519Z,19.92
2023-07-26T19:05:54.187Z,19.26
2023-07-26T19:08:41.824Z,18.71
2023-07-26T19:11:29.453Z,18.28
2023-07-26T19:14:17.073Z,17.65
2023-07-26T19:17:04.832Z,17.27
2023-07-26T19:19:52.460Z,17.10
2023-07-26T19:22:40.130Z,16.89
2023-07-26T19:25:27.781Z,16.76
2023-07-26T19:28:15.474Z,16.39
2023-07-26T19:31:03.146Z,16.24
2023-07-26T19:33:50.822Z,15.81
2023-07-26T19:36:38.443Z,15.29
2023-07-26T19:39:26.129Z,15.38
2023-07-26T19:42:13.752Z,15.12
2023-07-26T19:45:01.403Z,15.10
2023-07-26T19:47:51.205Z,14.96
2023-07-26T19:50:38.913Z,14.94
2023-07-26T19:53:26.532Z,14.90
2023-07-26T19:56:14.178Z,14.73
2023-07-26T19:59:01.855Z,14.52
2023-07-26T20:01:49.681Z,14.41
2023-07-26T20:04:37.507Z,14.40
2023-07-26T20:07:25.136Z,14.32
2023-07-26T20:10:12.784Z,14.24
2023-07-26T20:13:00.428Z,14.16
2023-07-26T20:15:48.243Z,14.31
2023-07-26T20:18:35.862Z,14.45
2023-07-26T20:21:23.520Z,14.63
2023-07-26T20:24:11.121Z,14.38
2023-07-26T20:26:58.908Z,14.24
2023-07-26T20:29:46.505Z,14.24
2023-07-26T20:32:34.310Z,14.06
2023-07-26T20:35:21.951Z,14.05
2023-07-26T20:38:09.589Z,14.01
2023-07-26T20:40:57.229Z,13.62
2023-07-26T20:43:44.885Z,13.48
2023-07-26T20:46:32.529Z,13.56
2023-07-26T20:49:20.209Z,13.48
2023-07-26T20:52:07.878Z,13.29
2023-07-26T20:54:55.526Z,13.36
2023-07-26T20:57:43.154Z,13.53
2023-07-26T21:00:32.774Z,13.32
2023-07-26T21:03:20.530Z,13.15
2023-07-26T21:06:08.283Z,13.17
2023-07-26T21:08:55.906Z,13.46
2023-07-26T21:11:43.585Z,13.68
2023-07-26T21:14:31.227Z,13.56
2023-07-26T21:17:18.996Z,13.64
2023-07-26T21:20:06.715Z,13.75
2023-07-26T21:22:54.424Z,14.01
2023-07-26T21:25:42.071Z,14.03
2023-07-26T21:28:29.725Z,13.90
2023-07-26T21:31:17.373Z,13.64
2023-07-26T21:34:05.040Z,13.46
2023-07-26T21:36:52.659Z,13.42
2023-07-26T21:39:40.317Z,13.39
2023-07-26T21:42:27.960Z,13.38
2023-07-26T21:45:15.655Z,13.55
2023-07-26T21:48:03.362Z,13.71
2023-07-26T21:50:52.102Z,13.82
2023-07-26T21:53:39.756Z,13.69
2023-07-26T21:56:27.675Z,13.85
2023-07-26T21:59:15.363Z,13.94
2023-07-26T22:02:03.051Z,14.52
2023-07-26T22:04:50.730Z,15.14
2023-07-26T22:07:38.364Z,14.78
2023-07-26T22:10:25.990Z,14.23
2023-07-26T22:13:13.634Z,13.72
2023-07-26T22:16:01.337Z,13.73
2023-07-26T22:18:49.005Z,13.63
2023-07-26T22:21:36.664Z,13.46
2023-07-26T22:24:24.375Z,13.47
2023-07-26T22:27:12.024Z,13.55
2023-07-26T22:29:59.721Z,13.49
2023-07-26T22:32:47.453Z,13.69
2023-07-26T22:35:35.110Z,13.55
2023-07-26T22:38:22.768Z,13.56
2023-07-26T22:41:10.399Z,13.52
2023-07-26T22:43:58.042Z,13.38
2023-07-26T22:46:45.684Z,13.18
2023-07-26T22:49:33.328Z,13.24
2023-07-26T22:52:20.979Z,13.35
2023-07-26T22:55:08.630Z,13.45
2023-07-26T22:57:56.348Z,13.41
2023-07-26T23:00:44.098Z,13.36
2023-07-26T23:03:31.818Z,13.19
2023-07-26T23:06:19.581Z,13.19
2023-07-26T23:09:07.227Z,12.59
2023-07-26T23:11:54.865Z,12.33
2023-07-26T23:14:42.488Z,11.73
2023-07-26T23:17:30.320Z,11.43
2023-07-26T23:20:18.002Z,11.30
2023-07-26T23:23:05.630Z,11.32
2023-07-26T23:25:53.271Z,11.45
2023-07-26T23:28:40.964Z,11.72
2023-07-26T23:31:28.611Z,12.02
2023-07-26T23:34:16.283Z,12.09
2023-07-26T23:37:05.905Z,12.01
2023-07-26T23:39:53.565Z,12.04
2023-07-26T23:42:41.224Z,11.99
2023-07-26T23:45:28.843Z,12.04
2023-07-26T23:48:17.744Z,12.29
2023-07-26T23:51:06.186Z,12.26
2023-07-26T23:53:53.809Z,12.06
2023-07-26T23:56:41.485Z,12.17
2023-07-26T23:59:29.117Z,12.34
